Tiempo atmosférico en la estación meteorológica de Luzaide/Valcarlos, Navarra (334 m.)



Fecha
DESCASC
Temp. máxima en grados centígrados (hora)
DESCASC
Temp. mínima en grados centígrados (hora)
DESCASC
Temp. media en grados centígrados
DESCASC
Racha de viento máxima en m/sg (hora)
DESCASC
Velocidad máxima media en intervalos de 10 minutos(hora)
DESCASC
Precipitaciones diarias en mm
DESCASC
Precipitaciones de 00:00 a 06:00 en mm
DESCASC
Precipitaciones de 06:00 a 12:00 en mm
DESCASC
Precipitaciones de 12:00 a 18:00 en mm
DESCASC
Precipitaciones de 18:00 a 24:00 en mm
DESCASC
14-12-2019 16.4 (13:30) 10.7 (02:20) 13.5 12.5 (21:30) 6.11 (23:59) 0 0 0 0 0
13-12-2019 13.7 (04:30) 11.8 (22:30) 12.8 18.61 (08:00) 5.83 (07:10) 98.4 33.2 31.8 29.2 4.2
12-12-2019 12.9 (23:59) 5.4 (00:40) 9.1 13.06 (15:30) 6.39 (16:40) 73 14 4.4 18.6 36
11-12-2019 13 (06:30) 5.8 (00:00) 9.4 12.22 (12:30) 4.17 (12:30) 33 0 9 4.6 19.4
10-12-2019 12.8 (14:20) 4.2 (09:50) 8.5 3.33 (11:00) 2.22 (13:50) 0.2 0.2 0 0 0
09-12-2019 11.1 (04:10) 7.4 (00:00) 9.3 17.22 (11:40) 5.28 (03:20) 23.2 0.8 10 7 5.4
08-12-2019 14.7 (12:00) 7.9 (00:00) 11.3 10.28 (20:50) 3.89 (11:40) 4.2 0 0 3.6 0.6
07-12-2019 13.9 (13:40) 4.2 (00:00) 9 5 (14:20) 3.06 (15:30) 0 0 0 0 0
06-12-2019 16.6 (14:20) 2.6 (00:00) 9.6 8.33 (11:40) 3.61 (12:00) 0 0 0 0 0
05-12-2019 10.9 (14:10) 4.8 (00:00) 7.8 4.72 (15:50) 2.78 (12:40) 0 0 0 0 0
04-12-2019 12.5 (14:50) 0.5 (00:00) 6.5 8.89 (16:20) 5.56 (16:00) 0 0 0 0 0
03-12-2019 4.6 (14:30) 2.2 (00:00) 3.4 6.39 (01:30) 3.33 (01:10) 1.4 1.4 0 0 0
02-12-2019 7.5 (01:20) 3.6 (00:00) 5.5 6.39 (16:00) 3.61 (17:20) 5.2 0 1.2 1.4 2.6
01-12-2019 11.5 (14:20) 4.5 (00:00) 8 4.44 (14:30) 3.06 (14:50) 1.6 0 0 1.6 0
30-11-2019 18.4 (11:50) 6.2 (00:00) 12.3 13.33 (06:50) 7.22 (11:40) 27.2 0 0 19.8 7.4
29-11-2019 15.7 (14:40) 6.5 (00:00) 11.1 5.83 (06:40) 2.78 (00:50) 2 2 0 0 0
28-11-2019 15.1 (14:00) 9.7 (21:50) 12.4 9.17 (18:20) 6.94 (18:20) 4 0 0.2 1.2 2.6
27-11-2019 15.8 (13:20) 10.3 (00:00) 13.1 9.72 (16:00) 4.17 (17:20) 2.8 0 0 0 2.8
26-11-2019 18.4 (13:40) 8.2 (00:00) 13.3 14.72 (15:10) 7.22 (15:10) 6.8 0 0 0 6.8
25-11-2019 17.2 (14:10) 8.1 (23:50) 12.7 8.61 (06:30) 5.28 (06:20) 0 0 0 0 0
24-11-2019 11.1 (15:40) 6.3 (00:00) 8.7 11.67 (22:30) 5.28 (22:30) 33.4 20.4 11.8 0.4 0.8
23-11-2019 12.5 (00:30) 7 (00:00) 9.8 15.28 (12:40) 5 (12:00) 61.6 2 28 8.8 22.8
22-11-2019 13.2 (20:30) 8.8 (00:00) 11 20.83 (17:40) 10 (17:40) 2.2 0 0.4 1.2 0.6
21-11-2019 13.6 (12:20) 7.5 (00:00) 10.6 11.39 (09:50) 5.28 (01:10) 0 0 0 0 0
20-11-2019 12.5 (14:00) 3.1 (00:00) 7.8 12.5 (18:40) 5.28 (08:50) 0 0 0 0 0
19-11-2019 9.4 (13:20) 0.5 (00:00) 4.9 5.28 (14:50) 3.33 (14:10) 0 0 0 0 0
18-11-2019 6.7 (00:00) 2.3 (00:00) 4.5 6.11 (04:20) 3.33 (02:30) 3.4 3.4 0 0 0
17-11-2019 8.7 (15:50) 5.7 (00:00) 7.2 9.17 (11:50) 4.72 (11:50) 11.4 1.2 0 6.4 3.8
16-11-2019 6.2 (09:50) 2.3 (00:00) 4.2 8.33 (10:30) 4.17 (15:30) 35.4 0.4 4.6 21.8 8.6
15-11-2019 7.8 (13:40) 2.9 (00:00) 5.4 10.83 (10:20) 5 (08:40) 9 2 4.6 1.6 0.8

Gráficas

Temp. máximas Temp. mínimas Temp. medias Precipitaciones Rachas de viento máximas Velocidades máximas media en intervalos de 10 minutos

Datos horarios

Fecha y hora oficial Temperatura (ºC) Velocidad del viento (km/h) Dirección del viento Racha (km/h) Dirección de racha Precipitación (mm) Presión (hPa) Tendencia (hPa) Humedad (%)
2019-12-14 23:00:00 13.7 15 Sudoeste 37 Sudoeste 0 -- -- 58
2019-12-14 22:00:00 13.6 16 Sudoeste 45 Sudoeste 0 -- -- 59
2019-12-14 21:00:00 13.8 13 Sudoeste 40 Sur 0 -- -- 59
2019-12-14 20:00:00 13.5 13 Sur 32 Sudoeste 0 -- -- 60
2019-12-14 19:00:00 13.7 15 Sur 37 Sudoeste 0 -- -- 60
2019-12-14 18:00:00 12.3 3 Sur 20 Sudoeste 0 -- -- 68
2019-12-14 17:00:00 13.8 9 Sudoeste 20 Sur 0 -- -- 65
2019-12-14 16:00:00 14.9 8 Sudoeste 24 Sudoeste 0 -- -- 62
2019-12-14 15:00:00 15.3 9 Sur 27 Sudoeste 0 -- -- 61
2019-12-14 14:00:00 16.3 6 Sur 30 Sur 0 -- -- 59
2019-12-14 13:00:00 15.3 13 Sur 32 Sur 0 -- -- 61
2019-12-14 12:00:00 13.7 9 Sur 22 Sur 0 -- -- 65
2019-12-14 11:00:00 12.9 8 Sur 20 Sur 0 -- -- 71
2019-12-14 10:00:00 12.3 9 Sur 27 Sur 0 -- -- 73
2019-12-14 09:00:00 12.5 13 Sur 26 Sudeste 0 -- -- 72
2019-12-14 08:00:00 12.2 11 Sur 18 Sudeste 0 -- -- 75
2019-12-14 07:00:00 11.4 0 Calma 14 Sur 0 -- -- 86
2019-12-14 06:00:00 12.1 4 Sudoeste 11 Sur 0 -- -- 79
2019-12-14 05:00:00 12.2 4 Sudoeste 21 Noroeste 0 -- -- 80
2019-12-14 04:00:00 11.7 7 Sur 15 Sur 0 -- -- 85
2019-12-14 03:00:00 10.8 2 Noroeste 6 Noroeste 0 -- -- 94
2019-12-14 02:00:00 10.9 2 Sudeste 7 Sur 0 -- -- 92
2019-12-14 01:00:00 11.6 3 Sur 14 Sur 0 -- -- 87
2019-12-14 00:00:00 11.9 8 Sur 25 Sur 0 -- -- 86
2019-12-13 23:00:00 12.2 13 Sur 36 Sur 0.4 -- -- 82
2019-12-13 22:00:00 12 17 Sudeste 58 Sudoeste 1.2 -- -- 84
2019-12-13 21:00:00 12.8 14 Sur 53 Sudoeste 0.2 -- -- 82
2019-12-13 20:00:00 13.6 16 Sur 59 Sudoeste 0.8 -- -- 78
2019-12-13 19:00:00 13.5 11 Sur 52 Oeste 1.6 -- -- 84
2019-12-13 18:00:00 13.3 15 Sur 38 Sur 4.8 -- -- 87
2019-12-13 17:00:00 12.9 8 Este 36 Sudoeste 4.8 -- -- 91
2019-12-13 16:00:00 12.9 11 Sudeste 28 Sur 4.4 -- -- 91
2019-12-13 15:00:00 12.4 8 Sudeste 26 Norte 4.2 -- -- 92
2019-12-13 14:00:00 13.1 9 Sudeste 34 Sudoeste 2.8 -- -- 85
2019-12-13 13:00:00 13.1 14 Sur 58 Sur 8.2 -- -- 86
2019-12-13 12:00:00 13.3 13 Sudeste 53 Sur 6.6 -- -- 87
2019-12-13 11:00:00 13.5 11 Sudoeste 62 Sur 4.6 -- -- 83
2019-12-13 10:00:00 13.4 17 Sur 57 Sudeste 5.2 -- -- 85
2019-12-13 09:00:00 13.1 14 Sur 65 Sur 6.4 -- -- 85
2019-12-13 08:00:00 13.3 17 Sur 67 Sudoeste 5.2 -- -- 85
2019-12-13 07:00:00 13.3 13 Este 51 Sur 3.8 -- -- 86
2019-12-13 06:00:00 13.3 17 Sur 58 Sudoeste 4.4 -- -- 87
2019-12-13 05:00:00 13.7 18 Sur 44 Sur 5 -- -- 84
2019-12-13 04:00:00 13.4 14 Sur 48 Sudoeste 4.6 -- -- 87
2019-12-13 03:00:00 13.6 14 Sur 40 Noroeste 6.2 -- -- 86
2019-12-13 02:00:00 13.2 14 Sur 47 Sur 6.2 -- -- 87
2019-12-13 01:00:00 13.1 15 Sudeste 47 Sur 6.8 -- -- 88
2019-12-13 00:00:00 12.9 11 Sur 30 Sur 6.8 -- -- 89
2019-12-12 23:00:00 11.6 15 Sur 43 Sur 8.8 -- -- 92
2019-12-12 22:00:00 9.8 13 Sur 30 Sur 6.2 -- -- 94
2019-12-12 21:00:00 9.7 18 Sur 29 Sur 5.2 -- -- 89
2019-12-12 20:00:00 8.9 17 Sur 30 Sur 5.2 -- -- 90
2019-12-12 19:00:00 8.3 17 Sur 34 Sur 3.8 -- -- 89
2019-12-12 18:00:00 7 19 Sur 42 Sur 4.6 -- -- 87
2019-12-12 17:00:00 6.9 19 Sur 45 Sur 6.4 -- -- 86
2019-12-12 16:00:00 7.3 17 Sur 47 Sur 3.8 -- -- 85
2019-12-12 15:00:00 7.8 16 Sur 45 Sudoeste 2.6 -- -- 83
2019-12-12 14:00:00 8.2 13 Sur 39 Sur 1.2 -- -- 83
2019-12-12 13:00:00 8.6 12 Sur 30 Sur 0 -- -- 80
2019-12-12 12:00:00 8.2 13 Sur 31 Sur 0.2 -- -- 81
2019-12-12 11:00:00 7.6 12 Sur 26 Sur 0.6 -- -- 85
2019-12-12 10:00:00 7.5 14 Sur 27 Sur 0.6 -- -- 85
2019-12-12 09:00:00 7.1 13 Sur 27 Sur 1.4 -- -- 87
2019-12-12 08:00:00 7.1 12 Sur 22 Sur 0.6 -- -- 89
2019-12-12 07:00:00 6.4 10 Sur 19 Sudoeste 1 -- -- 92
2019-12-12 06:00:00 6.1 6 Sur 13 Sudeste 2 -- -- 95
2019-12-12 05:00:00 6.2 5 Sudoeste 20 Sur 2 -- -- 91
2019-12-12 04:00:00 6.2 6 Sur 23 Sudoeste 1.6 -- -- 89
2019-12-12 03:00:00 5.5 17 Sur 29 Sudoeste 3.8 -- -- 89
2019-12-12 02:00:00 5.9 10 Sur 25 Sur 1.8 -- -- 91
2019-12-12 01:00:00 5.6 10 Sur 19 Sudoeste 2.8 -- -- 92
2019-12-12 00:00:00 5.8 9 Sur 24 Sudoeste 5.4 -- -- 90
2019-12-11 23:00:00 6.3 9 Sur 22 Sudoeste 3.8 -- -- 91
2019-12-11 22:00:00 6.9 8 Sur 36 Sur 3.4 -- -- 87
2019-12-11 21:00:00 7 13 Sur 27 Sur 2 -- -- 84
2019-12-11 20:00:00 6.7 8 Sudoeste 40 Sur 4.8 -- -- 82
2019-12-11 19:00:00 8.4 13 Sur 36 Sudoeste 0 -- -- 71
2019-12-11 18:00:00 7.2 6 Sur 16 Sudoeste 0 -- -- 83
2019-12-11 17:00:00 7.4 11 Sudeste 23 Sudeste 0.2 -- -- 84
2019-12-11 16:00:00 7.1 6 Sur 27 Sur 2.6 -- -- 88
2019-12-11 15:00:00 7.8 5 Sudoeste 22 Sur 1 -- -- 83
2019-12-11 14:00:00 8.9 4 Sudeste 22 Sur 0.4 -- -- 85
2019-12-11 13:00:00 8 9 Sur 44 Norte 0.4 -- -- 85
2019-12-11 12:00:00 8.3 7 Sudeste 17 Noroeste 2.2 -- -- 91
2019-12-11 11:00:00 9 3 Sudoeste 16 Norte 4.4 -- -- 92
2019-12-11 10:00:00 9.2 6 Sur 15 Sur 2.4 -- -- 88
2019-12-11 09:00:00 11.8 4 Sur 22 Sudoeste 0 -- -- 60
2019-12-11 08:00:00 12.2 8 Sudoeste 19 Sudeste 0 -- -- 50
2019-12-11 07:00:00 13 12 Sur 29 Sur 0 -- -- 43
2019-12-11 06:00:00 12.7 12 Sur 25 Sur 0 -- -- 48
2019-12-11 05:00:00 8.6 2 Sudoeste 9 Sur 0 -- -- 72
2019-12-11 04:00:00 8.4 4 Sur 6 Sur 0 -- -- 80
2019-12-11 03:00:00 8.3 4 Sur 8 Sur 0 -- -- 79
2019-12-11 02:00:00 8.7 0 Calma 5 Sur 0 -- -- 81
2019-12-11 01:00:00 8.9 4 Sur 8 Sur 0 -- -- 74
2019-12-11 00:00:00 8.5 0 Calma 8 Sur 0 -- -- 73
2019-12-10 23:00:00 8.1 4 Sur 9 Sur 0 -- -- 73
2019-12-10 22:00:00 7.2 5 Sur 9 Sur 0 -- -- 78
2019-12-10 21:00:00 6.7 0 Calma 6 Sur 0 -- -- 79
2019-12-10 20:00:00 6.9 5 Sur 8 Sur 0 -- -- 77
2019-12-10 19:00:00 6.5 3 Sur 6 Sudoeste 0 -- -- 78
2019-12-10 18:00:00 6.9 0 Calma 5 Sur 0 -- -- 84
2019-12-10 17:00:00 8.7 2 Sur 8 Sur 0 -- -- 82
2019-12-10 16:00:00 10.9 5 Sur 8 Sur 0 -- -- 75
2019-12-10 15:00:00 11.8 4 Norte 10 Norte 0 -- -- 72
2019-12-10 14:00:00 11.5 4 Este 11 Norte 0 -- -- 72
2019-12-10 13:00:00 12 3 Sudeste 11 Sur 0 -- -- 71
2019-12-10 12:00:00 9.7 5 Sur 9 Sudeste 0 -- -- 82
2019-12-10 11:00:00 7 5 Sur 12 Sur 0 -- -- 99
2019-12-10 10:00:00 4.4 5 Sur 11 Sur 0 -- -- 99
2019-12-10 09:00:00 4.4 3 Sur 7 Sudoeste 0 -- -- 99
2019-12-10 08:00:00 5.3 3 Sur 6 Sur 0 -- -- 99
2019-12-10 07:00:00 6.4 0 Calma 4 Sudoeste 0 -- -- 99
2019-12-10 06:00:00 6.8 0 Calma 4 Sur 0 -- -- 99
2019-12-10 05:00:00 7 2 Sudoeste 3 Sudoeste 0 -- -- 99
2019-12-10 04:00:00 7.1 3 Sudoeste 4 Sudoeste 0 -- -- 99
2019-12-10 03:00:00 7.1 0 Calma 4 Norte 0 -- -- 99
2019-12-10 02:00:00 7.1 0 Calma 4 Sudoeste 0 -- -- 98
2019-12-10 01:00:00 7.2 0 Calma 5 Sur 0.2 -- -- 98
2019-12-10 00:00:00 7.4 2 Oeste 4 Sur 0.2 -- -- 97
2019-12-09 23:00:00 7.6 3 Sur 8 Oeste 0.8 -- -- 96
2019-12-09 22:00:00 7.7 6 Norte 18 Noroeste 0.6 -- -- 95
2019-12-09 21:00:00 8.3 9 Norte 20 Noroeste 0.8 -- -- 93
2019-12-09 20:00:00 7.7 3 Sur 19 Nordeste 0.8 -- -- 95
2019-12-09 19:00:00 7.8 4 Sudoeste 14 Este 2.2 -- -- 94
2019-12-09 18:00:00 8.6 7 Norte 48 Norte 1.6 -- -- 86
2019-12-09 17:00:00 9.1 5 Noroeste 34 Norte 0.6 -- -- 83
2019-12-09 16:00:00 9.3 5 Nordeste 28 Norte 0.4 -- -- 83
2019-12-09 15:00:00 8.7 11 Norte 36 Nordeste 1.8 -- -- 90
2019-12-09 14:00:00 9.3 10 Nordeste 36 Norte 0.2 -- -- 83
2019-12-09 13:00:00 8.5 18 Norte 34 Nordeste 2.4 -- -- 90
2019-12-09 12:00:00 10 17 Nordeste 62 Norte 1 -- -- 78
2019-12-09 11:00:00 9.7 18 Nordeste 38 Noroeste 3.4 -- -- 81
2019-12-09 10:00:00 9.6 10 Sur 39 Sudoeste 0.6 -- -- 82
2019-12-09 09:00:00 9.4 16 Sur 32 Sudoeste 3.4 -- -- 85
2019-12-09 08:00:00 9.8 10 Sur 37 Sudeste 0.2 -- -- 80
2019-12-09 07:00:00 9.6 10 Sur 36 Este 1.4 -- -- 82
2019-12-09 06:00:00 10.1 7 Sudoeste 53 Sudeste 0.8 -- -- 76
2019-12-09 05:00:00 10.7 13 Sur 40 Sudoeste 0 -- -- 70
2019-12-09 04:00:00 10.9 12 Sur 45 Sudoeste 0 -- -- 66
2019-12-09 03:00:00 10.7 16 Sur 37 Sur 0 -- -- 69
2019-12-09 02:00:00 10.4 8 Sur 17 Sur 0 -- -- 71
2019-12-09 01:00:00 9.9 5 Sur 15 Sudoeste 0 -- -- 75
2019-12-09 00:00:00 10.1 5 Sur 13 Sur 0 -- -- 73
2019-12-08 23:00:00 10.4 5 Nordeste 22 Norte 0 -- -- 72
2019-12-08 22:00:00 10.5 5 Oeste 15 Sudeste 0 -- -- 78
2019-12-08 21:00:00 11.6 8 Sur 37 Sur 0 -- -- 71
2019-12-08 20:00:00 12 5 Este 26 Norte 0 -- -- 71
2019-12-08 19:00:00 12.6 9 Sur 30 Oeste 0.6 -- -- 78
2019-12-08 18:00:00 12.3 4 Norte 16 Sudeste 0.8 -- -- 95
2019-12-08 17:00:00 12.6 5 Sur 17 Sur 1.2 -- -- 94
2019-12-08 16:00:00 12.9 6 Sur 13 Sur 1.2 -- -- 92
2019-12-08 15:00:00 13.3 8 Sur 16 Sur 0.2 -- -- 88
2019-12-08 14:00:00 13.9 5 Sur 18 Sudeste 0.2 -- -- 82
2019-12-08 13:00:00 14.6 8 Sur 22 Sudeste 0 -- -- 68
2019-12-08 12:00:00 14.7 11 Sudeste 22 Sur 0 -- -- 65
2019-12-08 11:00:00 14.5 13 Sur 24 Sur 0 -- -- 65
2019-12-08 10:00:00 12.7 11 Sur 18 Sudeste 0 -- -- 70
2019-12-08 09:00:00 11.2 8 Sur 17 Sur 0 -- -- 74
2019-12-08 08:00:00 10.2 9 Sur 12 Sur 0 -- -- 81
2019-12-08 07:00:00 7.9 2 Sur 7 Sudoeste 0 -- -- 90
2019-12-08 06:00:00 8 2 Sur 9 Sudoeste 0 -- -- 91
2019-12-08 05:00:00 9.2 4 Sur 13 Sur 0 -- -- 87
2019-12-08 04:00:00 9.1 5 Sur 9 Sur 0 -- -- 91
2019-12-08 03:00:00 8.6 3 Sur 6 Sur 0 -- -- 94
2019-12-08 02:00:00 9 4 Sur 6 Sur 0 -- -- 95
2019-12-08 01:00:00 8.2 0 Calma 5 Sudoeste 0 -- -- 94
2019-12-08 00:00:00 8 0 Calma 6 Sur 0 -- -- 92
2019-12-07 23:00:00 8.7 2 Sur 5 Sur 0 -- -- 91
2019-12-07 22:00:00 9.9 2 Sudoeste 8 Oeste 0 -- -- 89
2019-12-07 21:00:00 10.2 0 Calma 4 Sudoeste 0 -- -- 88
2019-12-07 20:00:00 10.6 2 Sudeste 5 Sur 0 -- -- 88
2019-12-07 19:00:00 10.9 2 Sur 5 Sur 0 -- -- 86
2019-12-07 18:00:00 11.5 0 Calma 4 Sur 0 -- -- 82
2019-12-07 17:00:00 12.4 3 Sur 13 Norte 0 -- -- 78
2019-12-07 16:00:00 13.3 8 Norte 16 Norte 0 -- -- 70
2019-12-07 15:00:00 13.9 9 Norte 18 Norte 0 -- -- 68
2019-12-07 14:00:00 13.7 7 Norte 12 Norte 0 -- -- 68
2019-12-07 13:00:00 12.2 3 Norte 5 Noroeste 0 -- -- 76
2019-12-07 12:00:00 10.6 0 Calma 4 Sudeste 0 -- -- 79
2019-12-07 11:00:00 8.9 3 Sur 9 Sur 0 -- -- 90
2019-12-07 10:00:00 4.8 0 Calma 5 Sur 0 -- -- 96
2019-12-07 09:00:00 4.3 0 Calma 6 Sur 0 -- -- 96
2019-12-07 08:00:00 4.5 3 Sur 5 Sudoeste 0 -- -- 96
2019-12-07 07:00:00 4.9 0 Calma 5 Sudoeste 0 -- -- 95
2019-12-07 06:00:00 5.5 0 Calma 5 Sur 0 -- -- 95
2019-12-07 05:00:00 6.3 3 Sur 5 Norte 0 -- -- 94
2019-12-07 04:00:00 7.2 4 Noroeste 12 Noroeste 0 -- -- 93
2019-12-07 03:00:00 6.8 0 Calma 5 Sur 0 -- -- 92
2019-12-07 02:00:00 7.8 0 Calma 5 Norte 0 -- -- 90
2019-12-07 01:00:00 8.2 3 Sur 8 Sudoeste 0 -- -- 88
2019-12-07 00:00:00 8 7 Norte 12 Norte 0 -- -- 87
2019-12-06 23:00:00 9 3 Sudoeste 6 Sur 0 -- -- 81
2019-12-06 22:00:00 9.6 3 Sudoeste 7 Sudoeste 0 -- -- 79
2019-12-06 21:00:00 9.5 3 Sudoeste 8 Sur 0 -- -- 80
2019-12-06 20:00:00 9.2 2 Noroeste 6 Sudeste 0 -- -- 82
2019-12-06 19:00:00 10.6 3 Sur 8 Sur 0 -- -- 75
2019-12-06 18:00:00 11.9 2 Sur 15 Sudoeste 0 -- -- 70
2019-12-06 17:00:00 13.8 9 Sudoeste 26 Sudoeste 0 -- -- 61
2019-12-06 16:00:00 15.3 8 Sudoeste 22 Sudoeste 0 -- -- 57
2019-12-06 15:00:00 16.4 10 Sudoeste 22 Sudoeste 0 -- -- 53
2019-12-06 14:00:00 16.2 7 Sur 26 Sudoeste 0 -- -- 58
2019-12-06 13:00:00 16 11 Sur 26 Sur 0 -- -- 56
2019-12-06 12:00:00 14.7 13 Sur 30 Sudeste 0 -- -- 64
2019-12-06 11:00:00 7.3 3 Sur 6 Noroeste 0 -- -- 100
2019-12-06 10:00:00 3.5 0 Calma 5 Sur 0 -- -- 100
2019-12-06 09:00:00 3 3 Sur 7 Sur 0 -- -- 100
2019-12-06 08:00:00 2.8 0 Calma 5 Oeste 0 -- -- 100
2019-12-06 07:00:00 2.7 0 Calma 4 Sur 0 -- -- 99
2019-12-06 06:00:00 3 0 Calma 5 Sur 0 -- -- 99
2019-12-06 05:00:00 3 0 Calma 4 Sur 0 -- -- 98
2019-12-06 04:00:00 3 0 Calma 5 Sur 0 -- -- 98
2019-12-06 03:00:00 3.4 0 Calma 8 Sudoeste 0 -- -- 98
2019-12-06 02:00:00 3.6 0 Calma 5 Sur 0 -- -- 97
2019-12-06 01:00:00 4.3 0 Calma 4 Sur 0 -- -- 96
2019-12-06 00:00:00 4.8 0 Calma 5 Sur 0 -- -- 95
2019-12-05 23:00:00 5.6 3 Sur 6 Sudeste 0 -- -- 95
2019-12-05 22:00:00 6.6 5 Sur 8 Sur 0 -- -- 94
2019-12-05 21:00:00 6.8 4 Sur 7 Sur 0 -- -- 94
2019-12-05 20:00:00 7.9 3 Sur 5 Sur 0 -- -- 92
2019-12-05 19:00:00 8.5 0 Calma 8 Norte 0 -- -- 91
2019-12-05 18:00:00 9.3 0 Calma 8 Norte 0 -- -- 86
2019-12-05 17:00:00 10 4 Norte 12 Norte 0 -- -- 80
2019-12-05 16:00:00 10.6 8 Norte 17 Norte 0 -- -- 76
2019-12-05 15:00:00 10.9 7 Norte 15 Nordeste 0 -- -- 75
2019-12-05 14:00:00 10.8 7 Nordeste 16 Nordeste 0 -- -- 75
2019-12-05 13:00:00 10.3 8 Norte 15 Norte 0 -- -- 77
2019-12-05 12:00:00 8.9 3 Norte 6 Norte 0 -- -- 88
2019-12-05 11:00:00 7.7 0 Calma 4 Este 0 -- -- 96
2019-12-05 10:00:00 6.5 0 Calma 6 Nordeste 0 -- -- 98
2019-12-05 09:00:00 6 2 Norte 3 Noroeste 0 -- -- 98
2019-12-05 08:00:00 5.9 0 Calma 9 Norte 0 -- -- 98
2019-12-05 07:00:00 5.9 5 Noroeste 10 Norte 0 -- -- 98
2019-12-05 06:00:00 5.8 4 Noroeste 9 Norte 0 -- -- 99
2019-12-05 05:00:00 5.7 3 Norte 9 Noroeste 0 -- -- 99
2019-12-05 04:00:00 5.7 0 Calma 2 Norte 0 -- -- 99
2019-12-05 03:00:00 5.6 0 Calma 2 Oeste 0 -- -- 99
2019-12-05 02:00:00 5.5 0 Calma 6 Noroeste 0 -- -- 99
2019-12-05 01:00:00 5.4 2 Norte 6 Sudoeste 0 -- -- 99
2019-12-05 00:00:00 5.3 3 Norte 5 Oeste 0 -- -- 98
2019-12-04 23:00:00 5.4 0 Calma 8 Norte 0 -- -- 98
2019-12-04 22:00:00 5.5 0 Calma 9 Noroeste 0 -- -- 98
2019-12-04 21:00:00 5.6 0 Calma 5 Norte 0 -- -- 97
2019-12-04 20:00:00 5.5 0 Calma 5 Sudeste 0 -- -- 98
2019-12-04 19:00:00 5.3 2 Sudeste 5 Este 0 -- -- 98
2019-12-04 18:00:00 4.8 4 Norte 21 Norte 0 -- -- 97
2019-12-04 17:00:00 5.2 9 Norte 32 Norte 0 -- -- 95
2019-12-04 16:00:00 8.5 20 Norte 30 Norte 0 -- -- 82
2019-12-04 15:00:00 11.9 5 Norte 11 Noroeste 0 -- -- 67
2019-12-04 14:00:00 10.5 2 Norte 8 Norte 0 -- -- 75
2019-12-04 13:00:00 7.8 7 Norte 11 Norte 0 -- -- 83
2019-12-04 12:00:00 9.3 2 Nordeste 5 Nordeste 0 -- -- 82
2019-12-04 11:00:00 6.5 3 Sur 6 Sudoeste 0 -- -- 100
2019-12-04 10:00:00 2.1 0 Calma 9 Norte 0 -- -- 100
2019-12-04 09:00:00 2.3 2 Norte 6 Norte 0 -- -- 100
2019-12-04 08:00:00 2.2 3 Sur 5 Sur 0 -- -- 100
2019-12-04 07:00:00 1.7 0 Calma 6 Sudoeste 0 -- -- 100
2019-12-04 06:00:00 1.1 2 Sur 6 Sudoeste 0 -- -- 100
2019-12-04 05:00:00 0.7 3 Sur 5 Sur 0 -- -- 100
2019-12-04 04:00:00 0.8 3 Sur 5 Sudoeste 0 -- -- 99
2019-12-04 03:00:00 1.1 2 Sur 6 Sur 0 -- -- 99
2019-12-04 02:00:00 1.6 0 Calma 5 Sudoeste 0 -- -- 99
2019-12-04 01:00:00 1.8 0 Calma 5 Sudoeste 0 -- -- 98
2019-12-04 00:00:00 2.2 0 Calma 7 Sudoeste 0 -- -- 97
2019-12-03 23:00:00 2.5 0 Calma 8 Sudoeste 0 -- -- 96
2019-12-03 22:00:00 3.3 4 Sudoeste 12 Sur 0 -- -- 96
2019-12-03 21:00:00 3.4 0 Calma 6 Sudeste 0 -- -- 97
2019-12-03 20:00:00 3.7 0 Calma 12 Norte 0 -- -- 97
2019-12-03 19:00:00 3.9 0 Calma 9 Norte 0 -- -- 97
2019-12-03 18:00:00 3.9 6 Norte 15 Norte 0 -- -- 96
2019-12-03 17:00:00 4.2 8 Norte 14 Norte 0 -- -- 95
2019-12-03 16:00:00 4.5 8 Norte 10 Norte 0 -- -- 93
2019-12-03 15:00:00 4.5 7 Norte 11 Norte 0 -- -- 93
2019-12-03 14:00:00 4.4 5 Norte 9 Norte 0 -- -- 93
2019-12-03 13:00:00 4.1 5 Norte 12 Norte 0 -- -- 97
2019-12-03 12:00:00 3.7 8 Norte 12 Norte 0 -- -- 99
2019-12-03 11:00:00 3.7 5 Nordeste 14 Norte 0 -- -- 100
2019-12-03 10:00:00 3.6 5 Norte 10 Norte 0 -- -- 100
2019-12-03 09:00:00 3.4 4 Norte 8 Norte 0 -- -- 100
2019-12-03 08:00:00 3.2 4 Noroeste 9 Norte 0 -- -- 100
2019-12-03 07:00:00 3.2 6 Norte 14 Norte 0 -- -- 100
2019-12-03 06:00:00 3.1 6 Norte 14 Norte 0.6 -- -- 100
2019-12-03 05:00:00 3.2 7 Norte 15 Norte 0 -- -- 100
2019-12-03 04:00:00 3.2 9 Norte 19 Noroeste 0 -- -- 100
2019-12-03 03:00:00 3.4 11 Norte 21 Norte 0 -- -- 100
2019-12-03 02:00:00 3.4 9 Norte 23 Norte 0.6 -- -- 100
2019-12-03 01:00:00 3.7 9 Norte 15 Norte 0.2 -- -- 100
2019-12-03 00:00:00 3.7 8 Norte 18 Norte 0.6 -- -- 100
2019-12-02 23:00:00 3.7 9 Norte 17 Norte 0.6 -- -- 100
2019-12-02 22:00:00 3.9 8 Norte 13 Norte 0.4 -- -- 100
2019-12-02 21:00:00 3.9 8 Norte 14 Norte 0.4 -- -- 100
2019-12-02 20:00:00 3.9 9 Norte 17 Norte 0.4 -- -- 100
2019-12-02 19:00:00 4.1 10 Norte 22 Norte 0.2 -- -- 100
2019-12-02 18:00:00 4.4 12 Norte 21 Norte 0 -- -- 100
2019-12-02 17:00:00 5.1 12 Norte 19 Norte 0.6 -- -- 100
2019-12-02 16:00:00 5.8 11 Norte 23 Norte 0.2 -- -- 99
2019-12-02 15:00:00 6.6 9 Norte 18 Noroeste 0.2 -- -- 99
2019-12-02 14:00:00 7 13 Norte 22 Noroeste 0.4 -- -- 99
2019-12-02 13:00:00 7 10 Norte 21 Norte 0 -- -- 100
2019-12-02 12:00:00 7 10 Norte 22 Noroeste 0.2 -- -- 100
2019-12-02 11:00:00 6.9 10 Norte 21 Noroeste 0.6 -- -- 100
2019-12-02 10:00:00 6.7 11 Norte 18 Norte 0.4 -- -- 100
2019-12-02 09:00:00 6.7 10 Norte 18 Noroeste 0 -- -- 99
2019-12-02 08:00:00 6.7 8 Norte 15 Norte 0 -- -- 100
2019-12-02 07:00:00 6.7 7 Norte 16 Norte 0 -- -- 100
2019-12-02 06:00:00 6.8 8 Norte 15 Norte 0 -- -- 99
2019-12-02 05:00:00 7.1 7 Norte 15 Norte 0 -- -- 99
2019-12-02 04:00:00 7.4 5 Noroeste 10 Noroeste 0 -- -- 98
2019-12-02 03:00:00 7.5 3 Norte 7 Noroeste 0 -- -- 98
2019-12-02 02:00:00 7.5 3 Norte 7 Norte 0 -- -- 99
2019-12-02 01:00:00 7.4 0 Calma 4 Sur 0 -- -- 99
2019-12-02 00:00:00 7.4 0 Calma 4 Sudoeste 0 -- -- 98
2019-12-01 23:00:00 7.4 0 Calma 2 Sur 0 -- -- 98
2019-12-01 22:00:00 7.4 0 Calma 3 Sur 0 -- -- 98
2019-12-01 21:00:00 7.6 0 Calma 3 Sudoeste 0 -- -- 97
2019-12-01 20:00:00 7.6 0 Calma 3 Sur 0 -- -- 97
2019-12-01 19:00:00 7.8 2 Sur 5 Sudoeste 0 -- -- 96
2019-12-01 18:00:00 8.6 2 Sur 4 Sudoeste 0 -- -- 94
2019-12-01 17:00:00 9.6 0 Calma 4 Sur 0 -- -- 93
2019-12-01 16:00:00 10.1 3 Sur 13 Noroeste 1.6 -- -- 91
2019-12-01 15:00:00 11.1 9 Norte 16 Norte 0 -- -- 78
2019-12-01 14:00:00 11.4 6 Norte 10 Norte 0 -- -- 74
2019-12-01 13:00:00 10.9 0 Calma 4 Sur 0 -- -- 81
2019-12-01 12:00:00 9.7 0 Calma 6 Noroeste 0 -- -- 90
2019-12-01 11:00:00 8.3 4 Norte 13 Norte 0 -- -- 89
2019-12-01 10:00:00 7.6 3 Sudoeste 5 Sur 0 -- -- 92
2019-12-01 09:00:00 7.1 0 Calma 7 Sudeste 0 -- -- 92
2019-12-01 08:00:00 6.1 2 Sur 9 Sudoeste 0 -- -- 96
2019-12-01 07:00:00 4.6 0 Calma 5 Sur 0 -- -- 98
2019-12-01 06:00:00 4.6 0 Calma 7 Sur 0 -- -- 98
2019-12-01 05:00:00 4.7 4 Sur 6 Sur 0 -- -- 98
2019-12-01 04:00:00 5 4 Sur 7 Sur 0 -- -- 97
2019-12-01 03:00:00 4.9 0 Calma 8 Sudoeste 0 -- -- 96
2019-12-01 02:00:00 5.6 2 Sudoeste 6 Sur 0 -- -- 97
2019-12-01 01:00:00 6.2 5 Sur 8 Sudeste 0 -- -- 97
2019-12-01 00:00:00 7.1 4 Sur 6 Oeste 0 -- -- 98
2019-11-30 23:00:00 7.4 3 Sur 8 Sur 0 -- -- 98
2019-11-30 22:00:00 7.7 3 Sur 6 Sudoeste 0 -- -- 97
2019-11-30 21:00:00 8.3 0 Calma 14 Noroeste 0.2 -- -- 96
2019-11-30 20:00:00 8.7 6 Sudoeste 18 Sur 2.8 -- -- 97
2019-11-30 19:00:00 9.1 0 Calma 8 Este 4.4 -- -- 98
2019-11-30 18:00:00 9.3 2 Oeste 5 Nordeste 4.2 -- -- 98
2019-11-30 17:00:00 9.3 3 Norte 17 Norte 5.6 -- -- 98
2019-11-30 16:00:00 9.6 8 Norte 22 Norte 8.8 -- -- 97
2019-11-30 15:00:00 11.3 14 Norte 39 Norte 1.2 -- -- 91
2019-11-30 14:00:00 17.7 9 Sudoeste 33 Sudoeste 0 -- -- 60
2019-11-30 13:00:00 16.9 14 Sur 42 Sudoeste 0 -- -- 63
2019-11-30 12:00:00 18.3 18 Sudoeste 48 Sudoeste 0 -- -- 57
2019-11-30 11:00:00 16.3 15 Sudoeste 44 Sur 0 -- -- 63
2019-11-30 10:00:00 15.7 7 Sudoeste 34 Sudoeste 0 -- -- 63
2019-11-30 09:00:00 15.3 14 Sudoeste 36 Sudoeste 0 -- -- 64
2019-11-30 08:00:00 14.9 14 Sudoeste 40 Sudoeste 0 -- -- 65
2019-11-30 07:00:00 15.1 19 Sur 48 Sur 0 -- -- 62
2019-11-30 06:00:00 14.5 20 Sudoeste 37 Sudoeste 0 -- -- 60
2019-11-30 05:00:00 13.1 11 Sudoeste 29 Sudoeste 0 -- -- 66
2019-11-30 04:00:00 11.2 8 Sur 16 Sur 0 -- -- 75
2019-11-30 03:00:00 8.6 2 Sudoeste 10 Sur 0 -- -- 88
2019-11-30 02:00:00 7.5 6 Sudoeste 14 Sur 0 -- -- 95
2019-11-30 01:00:00 6.2 0 Calma 6 Sur 0 -- -- 96
2019-11-30 00:00:00 6.5 2 Sur 8 Sudoeste 0 -- -- 96
2019-11-29 23:00:00 6.9 2 Sudoeste 4 Sur 0 -- -- 94
2019-11-29 22:00:00 7.1 3 Sur 5 Sur 0 -- -- 94
2019-11-29 21:00:00 7.3 2 Sur 6 Sur 0 -- -- 94
2019-11-29 20:00:00 7.7 0 Calma 10 Sur 0 -- -- 92
2019-11-29 19:00:00 8.4 4 Sur 8 Sur 0 -- -- 90
2019-11-29 18:00:00 9.6 4 Sur 8 Sudoeste 0 -- -- 87
2019-11-29 17:00:00 11.8 0 Calma 6 Sur 0 -- -- 79
2019-11-29 16:00:00 13.7 0 Calma 7 Noroeste 0 -- -- 72
2019-11-29 15:00:00 15.4 2 Norte 9 Oeste 0 -- -- 62
2019-11-29 14:00:00 15 2 Este 13 Sur 0 -- -- 69
2019-11-29 13:00:00 14.5 5 Sudeste 12 Sudoeste 0 -- -- 73
2019-11-29 12:00:00 12.9 4 Sur 9 Sur 0 -- -- 82
2019-11-29 11:00:00 11.7 5 Sur 10 Sudoeste 0 -- -- 94
2019-11-29 10:00:00 10.6 2 Sur 7 Sur 0 -- -- 96
2019-11-29 09:00:00 10 0 Calma 9 Sudoeste 0 -- -- 95
2019-11-29 08:00:00 10.3 3 Sudeste 8 Sudoeste 0 -- -- 93
2019-11-29 07:00:00 11.6 4 Este 21 Sudoeste 0 -- -- 88
2019-11-29 06:00:00 11.4 6 Noroeste 20 Sudoeste 0 -- -- 96
2019-11-29 05:00:00 11.4 5 Sur 10 Sudoeste 0.2 -- -- 97
2019-11-29 04:00:00 11.5 2 Sur 11 Sudeste 0.8 -- -- 97
2019-11-29 03:00:00 11.3 3 Norte 16 Norte 1 -- -- 95
2019-11-29 02:00:00 12.2 3 Norte 15 Sur 0 -- -- 89
2019-11-29 01:00:00 13.1 10 Sur 17 Sur 0 -- -- 84
2019-11-29 00:00:00 13 9 Sur 20 Sur 0 -- -- 85
2019-11-28 23:00:00 11.7 9 Sur 19 Sur 0 -- -- 95
2019-11-28 22:00:00 9.8 2 Sur 8 Norte 0.2 -- -- 97
2019-11-28 21:00:00 9.9 8 Norte 16 Norte 0 -- -- 97
2019-11-28 20:00:00 10.2 3 Norte 10 Noroeste 1 -- -- 95
2019-11-28 19:00:00 10.4 11 Norte 33 Norte 1.4 -- -- 94
2019-11-28 18:00:00 13.3 5 Sudoeste 26 Sudoeste 0.2 -- -- 77
2019-11-28 17:00:00 12.8 6 Sur 22 Sur 1 -- -- 84
2019-11-28 16:00:00 14.5 10 Sudoeste 27 Sudoeste 0 -- -- 72
2019-11-28 15:00:00 14.7 10 Sur 28 Sur 0 -- -- 71
2019-11-28 14:00:00 15.1 9 Sur 17 Sudeste 0 -- -- 70
2019-11-28 13:00:00 12.6 10 Norte 17 Norte 0 -- -- 82
2019-11-28 12:00:00 12.7 8 Norte 19 Norte 0 -- -- 80
2019-11-28 11:00:00 11.6 13 Norte 21 Norte 0 -- -- 84
2019-11-28 10:00:00 11.1 9 Norte 15 Norte 0.2 -- -- 87
2019-11-28 09:00:00 11.6 5 Sur 13 Sudoeste 0 -- -- 83
2019-11-28 08:00:00 11.8 10 Sur 17 Sur 0 -- -- 75
2019-11-28 07:00:00 12 8 Sur 22 Sur 0 -- -- 74
2019-11-28 06:00:00 12.6 10 Sur 27 Sur 0 -- -- 71
2019-11-28 05:00:00 12.6 12 Sur 28 Sur 0 -- -- 70
2019-11-28 04:00:00 12.1 10 Sur 32 Sudoeste 0 -- -- 73
2019-11-28 03:00:00 12.3 14 Sur 28 Sur 0 -- -- 73
2019-11-28 02:00:00 11.8 10 Sur 24 Sur 0 -- -- 76
2019-11-28 01:00:00 11.5 12 Sur 22 Sur 0 -- -- 81
2019-11-28 00:00:00 11.4 8 Sur 21 Sur 0 -- -- 82
2019-11-27 23:00:00 10.9 9 Sur 18 Sudeste 0 -- -- 84
2019-11-27 22:00:00 10.5 8 Sur 15 Sur 0.4 -- -- 90
2019-11-27 21:00:00 10.4 11 Sur 16 Sur 0.4 -- -- 91
2019-11-27 20:00:00 10.5 6 Sur 11 Sur 1.6 -- -- 90
2019-11-27 19:00:00 11.5 6 Sur 31 Sudeste 0.4 -- -- 81
2019-11-27 18:00:00 13 10 Sur 31 Sudoeste 0 -- -- 71
2019-11-27 17:00:00 14.2 11 Sur 24 Sudoeste 0 -- -- 63
2019-11-27 16:00:00 14.7 13 Sur 35 Sudoeste 0 -- -- 59
2019-11-27 15:00:00 15 8 Sudoeste 28 Sur 0 -- -- 59
2019-11-27 14:00:00 15.5 11 Sur 26 Sur 0 -- -- 58
2019-11-27 06:00:00 -- -- -- -- -- -- -- -- --
2019-11-27 05:00:00 12 10 Sur 23 Sur 0 -- -- 71
2019-11-27 04:00:00 12.5 9 Sur 19 Sudoeste 0 -- -- 74
2019-11-27 03:00:00 13.4 10 Sur 22 Sur 0 -- -- 73
2019-11-27 02:00:00 13.3 9 Sur 20 Sur 0 -- -- 77
2019-11-27 01:00:00 13.8 6 Sur 17 Sur 0 -- -- 79
2019-11-27 00:00:00 14 8 Sur 37 Sur 1 -- -- 84
2019-11-26 23:00:00 14.2 8 Sur 39 Sur 1.4 -- -- 84
2019-11-26 22:00:00 14.7 13 Sur 37 Sudoeste 4.4 -- -- 82
2019-11-26 21:00:00 16.5 8 Oeste 36 Sudeste 0 -- -- 67
2019-11-26 20:00:00 16.8 8 Sudoeste 31 Sur 0 -- -- 65
2019-11-26 19:00:00 17.3 7 Sudoeste 19 Sur 0 -- -- 63
2019-11-26 18:00:00 17.5 12 Sudoeste 38 Sur 0 -- -- 62
2019-11-26 17:00:00 17.2 16 Sudoeste 51 Sudoeste 0 -- -- 63
2019-11-26 16:00:00 17 15 Sudoeste 53 Sur 0 -- -- 62
2019-11-26 15:00:00 17.2 25 Sur 46 Sur 0 -- -- 61
2019-11-26 14:00:00 18.1 20 Sudoeste 46 Sudoeste 0 -- -- 57
2019-11-26 13:00:00 17.4 21 Sudoeste 49 Sur 0 -- -- 58
2019-11-26 12:00:00 17.2 20 Sudoeste 52 Sur 0 -- -- 58
2019-11-26 11:00:00 17.5 19 Sudoeste 46 Sudoeste 0 -- -- 58
2019-11-26 10:00:00 15.9 21 Sudoeste 41 Sur 0 -- -- 58
2019-11-26 09:00:00 14.5 10 Sur 30 Sur 0 -- -- 62
2019-11-26 08:00:00 13.7 4 Sudoeste 32 Sur 0 -- -- 65
2019-11-26 07:00:00 13.7 13 Sur 38 Sur 0 -- -- 67
2019-11-26 06:00:00 13.5 15 Sudoeste 37 Sudoeste 0 -- -- 69
2019-11-26 05:00:00 13.4 10 Sur 28 Sur 0 -- -- 70
2019-11-26 04:00:00 13.4 10 Sudoeste 35 Sudoeste 0 -- -- 69
2019-11-26 03:00:00 13.2 8 Sudoeste 22 Oeste 0 -- -- 71
2019-11-26 02:00:00 13 7 Sudoeste 27 Sur 0 -- -- 73
2019-11-26 01:00:00 11.4 6 Sudoeste 26 Sur 0 -- -- 83
2019-11-26 00:00:00 8.2 4 Sur 7 Sur 0 -- -- 97
2019-11-25 23:00:00 9 3 Sudoeste 7 Sur 0 -- -- 95
2019-11-25 22:00:00 9.8 3 Sur 8 Sur 0 -- -- 94
2019-11-25 21:00:00 10.9 2 Sudoeste 6 Sudoeste 0 -- -- 93
2019-11-25 20:00:00 11.4 3 Sur 4 Sudoeste 0 -- -- 92
2019-11-25 19:00:00 11.7 3 Sur 5 Sudoeste 0 -- -- 90
2019-11-25 18:00:00 12.7 0 Calma 12 Norte 0 -- -- 87
2019-11-25 17:00:00 13.3 10 Norte 21 Noroeste 0 -- -- 84
2019-11-25 16:00:00 14.1 16 Norte 29 Norte 0 -- -- 79
2019-11-25 15:00:00 16.8 8 Sur 19 Sur 0 -- -- 62
2019-11-25 14:00:00 17.1 9 Sur 29 Sur 0 -- -- 63
2019-11-25 13:00:00 16.4 13 Sur 28 Sur 0 -- -- 64
2019-11-25 12:00:00 16.2 15 Sur 27 Sur 0 -- -- 63
2019-11-25 11:00:00 15.4 9 Sur 20 Sur 0 -- -- 69
2019-11-25 10:00:00 12.9 7 Sur 22 Sur 0 -- -- 78
2019-11-25 09:00:00 13.1 13 Sudoeste 24 Sudoeste 0 -- -- 72
2019-11-25 08:00:00 12.5 12 Sur 23 Sur 0 -- -- 74
2019-11-25 07:00:00 12.6 13 Sur 31 Sur 0 -- -- 73
2019-11-25 06:00:00 12.1 17 Sur 31 Sur 0 -- -- 74
2019-11-25 05:00:00 12 13 Sur 24 Sudeste 0 -- -- 75
2019-11-25 04:00:00 11.7 13 Sudeste 30 Sur 0 -- -- 76
2019-11-25 03:00:00 11.5 14 Sur 29 Sur 0 -- -- 75
2019-11-25 02:00:00 11.1 12 Sudeste 28 Sudeste 0 -- -- 76
2019-11-25 01:00:00 10.2 10 Sudeste 26 Sur 0 -- -- 78
2019-11-25 00:00:00 9.9 10 Sudeste 28 Sur 0.6 -- -- 83
2019-11-24 23:00:00 10.3 7 Sur 42 Sur 0.2 -- -- 74
2019-11-24 22:00:00 10.4 9 Sur 26 Oeste 0 -- -- 71
2019-11-24 21:00:00 10 3 Sudeste 24 Sudoeste 0 -- -- 73
2019-11-24 20:00:00 9.2 3 Oeste 22 Sur 0 -- -- 77
2019-11-24 19:00:00 7.3 4 Sur 8 Sur 0 -- -- 94
2019-11-24 18:00:00 8.7 3 Sur 6 Sur 0 -- -- 94
2019-11-24 17:00:00 9.8 2 Noroeste 10 Norte 0 -- -- 92
2019-11-24 16:00:00 10.6 5 Norte 9 Norte 0 -- -- 89
2019-11-24 15:00:00 10.3 2 Norte 4 Sudoeste 0 -- -- 93
2019-11-24 14:00:00 9.6 0 Calma 4 Nordeste 0 -- -- 96
2019-11-24 13:00:00 9.3 0 Calma 4 Sur 0.4 -- -- 97
2019-11-24 12:00:00 8.8 2 Sur 8 Sudoeste 0.4 -- -- 97
2019-11-24 11:00:00 8.2 3 Nordeste 12 Sur 0.6 -- -- 97
2019-11-24 10:00:00 7.2 3 Sur 10 Sur 0.2 -- -- 98
2019-11-24 09:00:00 6.5 7 Sur 14 Sur 3 -- -- 97
2019-11-24 08:00:00 6.3 4 Sudeste 15 Sur 3.6 -- -- 96
2019-11-24 07:00:00 6.4 3 Sur 14 Sur 4 -- -- 96
2019-11-24 06:00:00 6.7 10 Sur 15 Sur 3.6 -- -- 96
2019-11-24 05:00:00 6.5 9 Sur 15 Sudoeste 5 -- -- 98
2019-11-24 04:00:00 6.5 5 Noroeste 19 Norte 3.4 -- -- 98
2019-11-24 03:00:00 6.9 6 Sur 14 Sudoeste 1.6 -- -- 96
2019-11-24 02:00:00 6.6 4 Sur 18 Sudoeste 3 -- -- 96
2019-11-24 01:00:00 6.7 8 Sur 22 Sudoeste 3.8 -- -- 93
2019-11-24 00:00:00 7 3 Noroeste 21 Sur 6.8 -- -- 95
2019-11-23 23:00:00 7.5 12 Sur 21 Sur 5.8 -- -- 91
2019-11-23 22:00:00 8 9 Sudeste 22 Sur 2.6 -- -- 93
2019-11-23 21:00:00 7.8 7 Sur 22 Sudeste 2.8 -- -- 93
2019-11-23 20:00:00 7.8 3 Sudoeste 16 Sudoeste 1.4 -- -- 93
2019-11-23 19:00:00 7.9 5 Sur 16 Sur 3.4 -- -- 93
2019-11-23 18:00:00 8.3 6 Sudeste 22 Este 1.6 -- -- 89
2019-11-23 17:00:00 8.7 8 Sur 21 Norte 1.4 -- -- 87
2019-11-23 16:00:00 8.8 6 Sur 35 Sur 2.4 -- -- 86
2019-11-23 15:00:00 9.2 9 Este 35 Norte 1.2 -- -- 80
2019-11-23 14:00:00 10.4 12 Sur 35 Sudoeste 0.2 -- -- 71
2019-11-23 13:00:00 10.2 12 Sudeste 55 Sudoeste 2 -- -- 71
2019-11-23 12:00:00 8.7 18 Sur 39 Sur 5 -- -- 85
2019-11-23 11:00:00 8.6 11 Norte 43 Sudoeste 6 -- -- 89
2019-11-23 10:00:00 8.1 11 Sur 30 Sur 5.8 -- -- 88
2019-11-23 09:00:00 8 15 Sur 28 Sur 4 -- -- 88
2019-11-23 08:00:00 8 10 Sur 19 Sudeste 2.4 -- -- 88
2019-11-23 07:00:00 8.3 8 Sur 19 Sur 4.8 -- -- 87
2019-11-23 06:00:00 10 5 Sudoeste 30 Sudoeste 2 -- -- 81
2019-11-23 05:00:00 11.5 6 Sudoeste 24 Sudoeste 0 -- -- 67
2019-11-23 04:00:00 11.8 11 Sur 31 Sur 0 -- -- 67
2019-11-23 03:00:00 12 12 Sudoeste 32 Sudoeste 0 -- -- 67
2019-11-23 02:00:00 12.2 14 Sur 38 Sur 0 -- -- 68
2019-11-23 01:00:00 12.4 14 Sur 35 Sudoeste 0 -- -- 68
2019-11-23 00:00:00 12.4 13 Sudoeste 36 Sudoeste 0 -- -- 69
2019-11-22 23:00:00 12.5 15 Sudoeste 34 Sudoeste 0 -- -- 71
2019-11-22 22:00:00 12.2 11 Sudoeste 32 Sudoeste 0.2 -- -- 75
2019-11-22 21:00:00 12.9 12 Sudoeste 36 Sudoeste 0 -- -- 72
2019-11-22 20:00:00 12.6 8 Sur 35 Sudeste 0.2 -- -- 71
2019-11-22 19:00:00 12.1 12 Sudoeste 59 Sudeste 0.2 -- -- 75
2019-11-22 18:00:00 12.1 35 Sur 75 Sur 0 -- -- 71
2019-11-22 17:00:00 12 18 Sur 52 Sudoeste 0.4 -- -- 72
2019-11-22 16:00:00 11.8 21 Sur 57 Sudoeste 0.8 -- -- 72
2019-11-22 15:00:00 12.1 17 Sudoeste 58 Sur 0 -- -- 70
2019-11-22 14:00:00 11.6 22 Sudoeste 53 Sur 0 -- -- 71
2019-11-22 13:00:00 11.4 18 Sur 63 Sur 0 -- -- 74
2019-11-22 12:00:00 10.8 27 Sur 72 Sudoeste 0.4 -- -- 72
2019-11-22 11:00:00 10.8 23 Sur 55 Sur 0 -- -- 71
2019-11-22 10:00:00 11.5 20 Sur 70 Sur 0 -- -- 65
2019-11-22 09:00:00 11.2 27 Sur 75 Sur 0 -- -- 64
2019-11-22 08:00:00 11.7 28 Sur 62 Sudoeste 0 -- -- 59
2019-11-22 07:00:00 10.9 8 Noroeste 37 Sur 0 -- -- 64
2019-11-22 06:00:00 10.8 10 Sudoeste 40 Sur 0 -- -- 64
2019-11-22 05:00:00 10.7 12 Sudoeste 29 Sudoeste 0 -- -- 64
2019-11-22 04:00:00 9.4 8 Sudoeste 22 Oeste 0 -- -- 70
2019-11-22 03:00:00 9.5 6 Sudoeste 23 Sudoeste 0 -- -- 70
2019-11-22 02:00:00 10.2 9 Sur 40 Sudoeste 0 -- -- 67
2019-11-22 01:00:00 10.1 8 Sudoeste 21 Sudoeste 0 -- -- 68
2019-11-22 00:00:00 9 8 Sudoeste 23 Sudoeste 0 -- -- 75
2019-11-21 23:00:00 8.2 6 Sur 18 Sudoeste 0 -- -- 78
2019-11-21 22:00:00 8.4 2 Sur 12 Sur 0 -- -- 75
2019-11-21 21:00:00 8.6 4 Sur 14 Sur 0 -- -- 75
2019-11-21 20:00:00 8.4 7 Sur 20 Sur 0 -- -- 78
2019-11-21 19:00:00 8.6 6 Sur 21 Sur 0 -- -- 79
2019-11-21 18:00:00 10.1 9 Sudoeste 28 Sudoeste 0 -- -- 71
2019-11-21 17:00:00 10.6 10 Sur 24 Sudoeste 0 -- -- 68
2019-11-21 16:00:00 11 11 Sur 28 Sur 0 -- -- 69
2019-11-21 15:00:00 11.9 7 Sur 32 Sur 0 -- -- 64
2019-11-21 14:00:00 12.1 14 Sur 32 Sur 0 -- -- 60
2019-11-21 13:00:00 12 13 Sur 35 Sur 0 -- -- 60
2019-11-21 12:00:00 13.1 12 Sudoeste 30 Sudoeste 0 -- -- 58
2019-11-21 11:00:00 12.2 14 Sur 35 Sudoeste 0 -- -- 62
2019-11-21 10:00:00 9.5 18 Sur 41 Sudoeste 0 -- -- 68
2019-11-21 09:00:00 9.1 15 Sudoeste 30 Sur 0 -- -- 68
2019-11-21 08:00:00 8.9 14 Sur 30 Sur 0 -- -- 68
2019-11-21 07:00:00 8.9 15 Sudoeste 35 Sur 0 -- -- 69
2019-11-21 06:00:00 8.8 16 Sudoeste 41 Sudoeste 0 -- -- 70
2019-11-21 05:00:00 8.5 13 Sudoeste 35 Sudoeste 0 -- -- 71
2019-11-21 04:00:00 8.3 12 Sudoeste 28 Sudoeste 0 -- -- 71
2019-11-21 03:00:00 8.3 11 Sudoeste 39 Sudoeste 0 -- -- 70
2019-11-21 02:00:00 8.3 15 Sudoeste 38 Sur 0 -- -- 70
2019-11-21 01:00:00 8.4 16 Sudoeste 40 Sudoeste 0 -- -- 69
2019-11-21 00:00:00 8.7 9 Sudoeste 30 Sudoeste 0 -- -- 66
2019-11-20 23:00:00 9.5 12 Sudoeste 31 Sudoeste 0 -- -- 63
2019-11-20 22:00:00 9.9 6 Noroeste 27 Sudoeste 0 -- -- 59
2019-11-20 21:00:00 10.6 8 Noroeste 25 Sudoeste 0 -- -- 54
2019-11-20 20:00:00 11 13 Sudoeste 32 Sudoeste 0 -- -- 49
2019-11-20 19:00:00 10.9 14 Sudoeste 45 Sudoeste 0 -- -- 48
2019-11-20 18:00:00 10.9 9 Sudoeste 33 Sur 0 -- -- 49
2019-11-20 17:00:00 11.1 5 Sur 32 Sur 0 -- -- 53
2019-11-20 16:00:00 11.6 14 Sur 37 Sur 0 -- -- 53
2019-11-20 15:00:00 12.5 6 Sudeste 35 Sudeste 0 -- -- 52
2019-11-20 14:00:00 12.5 8 Sudeste 33 Sur 0 -- -- 49
2019-11-20 13:00:00 12.2 7 Sur 26 Sur 0 -- -- 49
2019-11-20 12:00:00 12 7 Sur 33 Sur 0 -- -- 50
2019-11-20 11:00:00 10.5 16 Sur 39 Sur 0 -- -- 52
2019-11-20 10:00:00 9.6 18 Sur 41 Sudoeste 0 -- -- 54
2019-11-20 09:00:00 9.2 17 Sudoeste 43 Sur 0 -- -- 56
2019-11-20 08:00:00 8.3 16 Sur 36 Sudoeste 0 -- -- 60
2019-11-20 07:00:00 7.4 8 Sudoeste 38 Sudoeste 0 -- -- 65
2019-11-20 06:00:00 7.3 9 Sudoeste 28 Sudoeste 0 -- -- 68
2019-11-20 05:00:00 5.4 5 Sudoeste 14 Sur 0 -- -- 80
2019-11-20 04:00:00 5.3 4 Sur 15 Sudoeste 0 -- -- 82
2019-11-20 03:00:00 6.2 4 Sur 22 Sudoeste 0 -- -- 78
2019-11-20 02:00:00 6.1 5 Sur 19 Sudoeste 0 -- -- 78
2019-11-20 01:00:00 5.3 4 Sur 17 Sudoeste 0 -- -- 84
2019-11-20 00:00:00 3.1 3 Sur 10 Sur 0 -- -- 98
2019-11-19 23:00:00 1.5 4 Sur 8 Sur 0 -- -- 98
2019-11-19 22:00:00 1.2 2 Sudoeste 5 Sur 0 -- -- 97
2019-11-19 21:00:00 1.4 2 Sudoeste 6 Sur 0 -- -- 95
2019-11-19 20:00:00 2 0 Calma 7 Sudeste 0 -- -- 94
2019-11-19 19:00:00 3.1 0 Calma 6 Sudoeste 0 -- -- 92
2019-11-19 18:00:00 4.6 3 Sur 7 Sur 0 -- -- 89
2019-11-19 17:00:00 6.5 2 Sur 10 Norte 0 -- -- 83
2019-11-19 16:00:00 8 6 Norte 16 Norte 0 -- -- 71
2019-11-19 15:00:00 8.6 10 Norte 19 Norte 0 -- -- 64
2019-11-19 14:00:00 8.9 12 Norte 15 Norte 0 -- -- 67
2019-11-19 13:00:00 8.8 6 Norte 12 Norte 0 -- -- 68
2019-11-19 12:00:00 8.1 4 Nordeste 10 Norte 0 -- -- 73
2019-11-19 11:00:00 6.2 3 Sudeste 6 Sur 0 -- -- 94
2019-11-19 10:00:00 1.2 4 Sur 6 Sudeste 0 -- -- 99
2019-11-19 09:00:00 0.5 0 Calma 10 Sudoeste 0 -- -- 98
2019-11-19 08:00:00 0.7 3 Sur 7 Sur 0 -- -- 99
2019-11-19 07:00:00 1.2 0 Calma 4 Sudoeste 0 -- -- 98
2019-11-19 06:00:00 2.3 3 Sudoeste 5 Sudoeste 0 -- -- 98
2019-11-19 05:00:00 2.6 0 Calma 6 Sudoeste 0 -- -- 98
2019-11-19 04:00:00 2.9 0 Calma 4 Sudoeste 0 -- -- 98
2019-11-19 03:00:00 3.1 3 Sudoeste 6 Oeste 0 -- -- 98
2019-11-19 02:00:00 3 0 Calma 3 Sur 0 -- -- 98
2019-11-19 01:00:00 3.3 0 Calma 6 Sur 0 -- -- 97
2019-11-19 00:00:00 3.1 0 Calma 6 Sur 0 -- -- 98
2019-11-18 23:00:00 2.8 3 Sur 6 Sudoeste 0 -- -- 97
2019-11-18 22:00:00 2.4 0 Calma 4 Sudoeste 0 -- -- 96
2019-11-18 21:00:00 3.3 0 Calma 5 Sudoeste 0 -- -- 94
2019-11-18 20:00:00 4.7 0 Calma 4 Sur 0 -- -- 95
2019-11-18 19:00:00 5.1 0 Calma 5 Norte 0 -- -- 94
2019-11-18 18:00:00 5.6 0 Calma 3 Norte 0 -- -- 91
2019-11-18 17:00:00 6.1 0 Calma 4 Norte 0 -- -- 88
2019-11-18 16:00:00 6.3 3 Norte 11 Noroeste 0 -- -- 77
2019-11-18 15:00:00 6.4 6 Norte 13 Noroeste 0 -- -- 74
2019-11-18 14:00:00 6.5 6 Norte 15 Norte 0 -- -- 74
2019-11-18 13:00:00 6.5 6 Norte 13 Norte 0 -- -- 76
2019-11-18 12:00:00 5.8 7 Norte 13 Noroeste 0 -- -- 86
2019-11-18 11:00:00 5.6 7 Norte 13 Norte 0 -- -- 95
2019-11-18 10:00:00 4.8 2 Norte 5 Norte 0 -- -- 98
2019-11-18 09:00:00 4.3 0 Calma 5 Oeste 0 -- -- 98
2019-11-18 08:00:00 4.7 0 Calma 10 Norte 0 -- -- 98
2019-11-18 07:00:00 4.7 7 Norte 10 Norte 0 -- -- 97
2019-11-18 06:00:00 5 0 Calma 6 Noroeste 0 -- -- 95
2019-11-18 05:00:00 5.5 5 Norte 22 Noroeste 0.6 -- -- 90
2019-11-18 04:00:00 5.9 0 Calma 6 Noroeste 0.2 -- -- 96
2019-11-18 03:00:00 6.3 4 Norte 21 Norte 0.8 -- -- 93
2019-11-18 02:00:00 6.2 2 Sur 11 Norte 0.8 -- -- 98
2019-11-18 01:00:00 6.4 0 Calma 8 Sur 1 -- -- 97
2019-11-18 00:00:00 6.7 2 Sur 13 Sur 1.6 -- -- 97
2019-11-17 23:00:00 6.9 2 Sudeste 15 Sur 0.6 -- -- 96
2019-11-17 22:00:00 6.9 4 Sur 10 Sudeste 0.8 -- -- 97
2019-11-17 21:00:00 7 3 Sur 8 Sur 0.2 -- -- 96
2019-11-17 20:00:00 7.3 6 Sur 19 Sur 0.6 -- -- 93
2019-11-17 19:00:00 7.3 6 Sur 21 Sur 0 -- -- 93
2019-11-17 18:00:00 7.5 7 Sur 20 Sur 3.2 -- -- 92
2019-11-17 17:00:00 8.1 5 Sur 24 Sur 1.2 -- -- 91
2019-11-17 16:00:00 8.7 10 Sur 21 Sur 0.2 -- -- 86
2019-11-17 15:00:00 8 10 Sur 27 Sur 0.6 -- -- 86
2019-11-17 14:00:00 8.3 11 Sur 25 Sur 0.6 -- -- 86
2019-11-17 13:00:00 7.7 9 Sur 23 Sur 0.6 -- -- 85
2019-11-17 12:00:00 7.9 12 Sur 33 Sur 0 -- -- 79
2019-11-17 11:00:00 8.2 14 Sur 26 Sudoeste 0 -- -- 78
2019-11-17 10:00:00 7.7 11 Sur 28 Sur 0 -- -- 80
2019-11-17 09:00:00 6.6 12 Sur 24 Sur 0 -- -- 84
2019-11-17 08:00:00 6.3 8 Sur 17 Sur 0 -- -- 89
2019-11-17 07:00:00 5.8 6 Sur 15 Sur 0 -- -- 92
2019-11-17 06:00:00 5.9 9 Sur 15 Sur 1 -- -- 94
2019-11-17 05:00:00 5.9 0 Calma 14 Sur 0.2 -- -- 95
2019-11-17 04:00:00 6.1 8 Sur 14 Sudoeste 0 -- -- 93
2019-11-17 03:00:00 6.4 5 Sur 17 Sur 0 -- -- 90
2019-11-17 02:00:00 5.9 6 Sur 23 Sudoeste 0 -- -- 93
2019-11-17 01:00:00 5.8 8 Sur 15 Sur 0 -- -- 94
2019-11-17 00:00:00 5.9 8 Sur 15 Sudoeste 0.6 -- -- 94
2019-11-16 23:00:00 5.8 5 Sudoeste 17 Sur 0.2 -- -- 92
2019-11-16 22:00:00 5.5 10 Sur 19 Sur 2.8 -- -- 92
2019-11-16 21:00:00 5.7 9 Sur 21 Sudeste 1.8 -- -- 89
2019-11-16 20:00:00 6.1 8 Sur 20 Sur 0.8 -- -- 89
2019-11-16 19:00:00 5.6 9 Sur 21 Sudeste 2.4 -- -- 90
2019-11-16 18:00:00 5.2 13 Sur 26 Sudoeste 3.8 -- -- 90
2019-11-16 17:00:00 5.3 13 Sur 25 Sur 2 -- -- 90
2019-11-16 16:00:00 4.9 12 Sur 26 Sudeste 2.6 -- -- 91
2019-11-16 15:00:00 4.4 10 Sur 22 Sudoeste 3.2 -- -- 91
2019-11-16 14:00:00 4.3 12 Sur 21 Sur 5.6 -- -- 91
2019-11-16 13:00:00 4.4 9 Sur 19 Sur 4.6 -- -- 92
2019-11-16 12:00:00 4.8 11 Sur 28 Sudoeste 3.2 -- -- 89
2019-11-16 11:00:00 5.3 12 Sur 30 Sudeste 1.4 -- -- 86
2019-11-16 10:00:00 6.2 13 Sur 28 Sudoeste 0 -- -- 80
2019-11-16 09:00:00 5.3 9 Sur 19 Sur 0 -- -- 84
2019-11-16 08:00:00 4.2 9 Sur 17 Sur 0 -- -- 93
2019-11-16 07:00:00 3.3 4 Sur 10 Sur 0 -- -- 98
2019-11-16 06:00:00 3.7 4 Sur 8 Sur 0.2 -- -- 99
2019-11-16 05:00:00 3.6 5 Sur 9 Sur 0 -- -- 99
2019-11-16 04:00:00 3.1 4 Norte 14 Sur 0.2 -- -- 98
2019-11-16 03:00:00 2.5 6 Sur 9 Sudeste 0 -- -- 98
2019-11-16 02:00:00 2.4 5 Sur 12 Sur 0 -- -- 97
2019-11-16 01:00:00 2.7 6 Sur 13 Sur 0 -- -- 97
2019-11-16 00:00:00 2.9 2 Sur 6 Sudoeste 0 -- -- 97
2019-11-15 23:00:00 4 3 Sur 6 Sur 0 -- -- 98
2019-11-15 22:00:00 4.2 3 Sur 10 Sur 0 -- -- 98
2019-11-15 21:00:00 4.2 0 Calma 7 Sur 0 -- -- 97
2019-11-15 20:00:00 4.3 2 Sur 5 Sur 0 -- -- 97
2019-11-15 19:00:00 4.9 2 Nordeste 7 Norte 0.8 -- -- 96
2019-11-15 18:00:00 4.8 0 Calma 17 Norte 0 -- -- 95
2019-11-15 17:00:00 5.6 11 Norte 21 Norte 0.6 -- -- 92
2019-11-15 16:00:00 7.3 2 Sur 8 Oeste 0 -- -- 83
2019-11-15 15:00:00 7.7 2 Nordeste 17 Norte 0 -- -- 81
2019-11-15 14:00:00 7 11 Norte 28 Noroeste 0.2 -- -- 81
2019-11-15 13:00:00 6.7 3 Noroeste 22 Sudoeste 0.8 -- -- 91
2019-11-15 12:00:00 5.4 8 Sur 26 Sur 2 -- -- 89
2019-11-15 11:00:00 4.8 8 Sur 39 Sur 2 -- -- 89
2019-11-15 10:00:00 5.1 16 Sur 37 Sudeste 0.4 -- -- 84
2019-11-15 09:00:00 5.1 17 Sur 36 Sudeste 0 -- -- 82
2019-11-15 08:00:00 5.1 13 Sudoeste 37 Sudoeste 0.2 -- -- 82
2019-11-15 07:00:00 5.3 14 Sur 36 Sur 0 -- -- 81
2019-11-15 06:00:00 5.4 13 Sur 30 Sur 0 -- -- 80
2019-11-15 05:00:00 4.9 7 Sur 20 Sudoeste 0 -- -- 89
2019-11-15 04:00:00 4.6 9 Sur 14 Sur 0 -- -- 93
2019-11-15 03:00:00 4.2 6 Sur 12 Sur 0.4 -- -- 97
2019-11-15 02:00:00 4.2 5 Sur 18 Sudoeste 1.2 -- -- 95
2019-11-15 01:00:00 4.4 8 Sur 15 Sudoeste 0.4 -- -- 97
2019-11-15 00:00:00 4.5 5 Sur 9 Sur 1 -- -- 98